General Aviation Weather

Text Reports

Enter one or more of the following location identifiers separated by a space:

Zip Code, Four-Character ICAO or Three-Character IATA airport codes.

METAR - Aviation Routine Weather Report
KFKS - Frankfort, Michigan
Updated at 6:16 AM GMT on July 12, 2014 (2:16 AM EDT):
METAR KFKS 120616Z AUTO 20005KT 10SM SCT049 BKN090 21/11 A3009 RMK AO2 T02140113
TAF - Terminal Area Forecast
KFKS - Frankfort, Michigan
Updated at 6:16 AM GMT on July 12, 2014 (2:16 AM EDT):
No TAF is currently available for this location.
Decoded:
No decoded TAF is available.
PIREP - Pilot Weather Report
KFKS - Frankfort, Michigan
Updated at 6:16 AM GMT on July 12, 2014 (2:16 AM EDT):
No PIREP is currently available for this location.
AIRMET - Airmens Meteorological Information
KFKS - Frankfort, Michigan
Updated at 6:16 AM GMT on July 12, 2014 (2:16 AM EDT):
No AIRMET is currently available for this location.
SIGMET - Significant Meteorological Information
KFKS - Frankfort, Michigan
Updated at 6:16 AM GMT on July 12, 2014 (2:16 AM EDT):
No SIGMET is currently available for this location.
NOTAM - Notice to Airmen
KFKS - Frankfort, Michigan
Updated at 6:16 AM GMT on July 12, 2014 (2:16 AM EDT):
No NOTAM is currently available for this location.
Forecast Area
KFKS - Frankfort, Michigan
Updated at 6:16 AM GMT on July 12, 2014 (2:16 AM EDT):
No NOTAM is currently available for this location.
Aviation Weather Maps